Seabourn Legend — C6FR6 — position and weather

sailwx.info

Track history (hours):
 
Tides and Currents Weather Stations Pressure Air Temp Water Temp Dewpoint Dewpoint Depression Visibility Wind Speed Wind Dir Waves Ship Positions

Seabourn Legend

Operator: Cunard Seabourn

Last reported at 2019-Nov-20 08:27 UTC. Time now 2019-Nov-20 09:52 UTC.
Position N 17°39' W 063°02'.

Length 135 m; draft 5.6 m.

Type: Passenger vessel. MMSI: 311085000.

Date/timePositionNaut miles runAvg speedWind from/ knotsBaromVisibWave heightAir tempDewpointWater temp
2019-Nov-20 08:27N 17°39' W 063°02'6 6.3
2019-Nov-20 07:30N 17°34' W 063°04'18 6.0
2019-Nov-20 04:25N 17°17' W 062°55'25 1.1
2019-Nov-19 04:23N 17°43' W 062°53'20 8.4
2019-Nov-19 01:58N 18°01' W 063°03'0 0.0
2019-Nov-18 22:07N 18°01' W 063°03'0 0.0
2019-Nov-18 21:10N 18°01' W 063°03'0 0.0
2019-Nov-18 20:22N 18°01' W 063°03'0 0.0
2019-Nov-18 19:55N 18°01' W 063°03'0 0.0
2019-Nov-18 15:58N 18°01' W 063°03'0 0.0
2019-Nov-18 15:13N 18°01' W 063°03'0 0.0
2019-Nov-18 12:46N 18°01' W 063°03'0 0.0
2019-Nov-18 12:28N 18°01' W 063°03'2 1.3
2019-Nov-18 11:00N 18°00' W 063°05'2111.5
2019-Nov-18 09:13N 18°02' W 063°26'7710.7
2019-Nov-18 02:00N 18°16' W 064°46'10 9.8
2019-Nov-18 01:00N 18°20' W 064°56'0 0.3
2019-Nov-17 23:30N 18°20' W 064°55'0 0.0
2019-Nov-17 22:54N 18°20' W 064°55'0 0.0
2019-Nov-17 22:00N 18°20' W 064°55'0 0.0
2019-Nov-17 19:48N 18°20' W 064°55'0 0.0
2019-Nov-17 17:30N 18°20' W 064°55'0 0.0
2019-Nov-17 16:54N 18°20' W 064°55'24 2.6
2019-Nov-17 07:30N 18°34' W 065°16'29 9.5
2019-Nov-17 04:30N 18°32' W 065°46'1210.0
2019-Nov-17 03:21N 18°31' W 065°58'8 4.5
2019-Nov-17 01:29N 18°28' W 066°07'0 0.0
2019-Nov-16 21:27N 18°28' W 066°07'0 0.0
2019-Nov-16 20:27N 18°28' W 066°07'0 0.0
2019-Nov-16 17:30N 18°28' W 066°07'0 0.0
2019-Nov-16 16:57N 18°28' W 066°07'0 0.0
2019-Nov-16 15:58N 18°28' W 066°07'0 0.0
2019-Nov-16 15:28N 18°28' W 066°07'28 3.5
2019-Nov-16 07:30N 18°30' W 065°38'9 9.4
2019-Nov-16 06:30N 18°30' W 065°28'23 7.7
2019-Nov-16 03:30N 18°16' W 065°08'611.3
2019-Nov-16 03:00N 18°10' W 065°09'612.1
2019-Nov-16 02:30N 18°04' W 065°09'336 8.3
2019-Nov-14 10:16N 14°04' W 061°05'  
2019-Nov-12 03:08N 14°44' W 061°34'  
Track history (hours):
 
Tides and Currents Weather Stations Pressure Air Temp Water Temp Dewpoint Dewpoint Depression Visibility Wind Speed Wind Dir Waves Ship Positions

Seabourn Legend

Operator: Cunard Seabourn

Last reported at 2019-Nov-20 08:27 UTC. Time now 2019-Nov-20 09:52 UTC.
Position N 17°39' W 063°02'.

Length 135 m; draft 5.6 m.

Type: Passenger vessel. MMSI: 311085000.

Date/timePositionNaut miles runAvg speedWind from/ knotsBaromVisibWave heightAir tempDewpointWater temp
2019-Nov-20 08:27N 17°39' W 063°02'6 6.3
2019-Nov-20 07:30N 17°34' W 063°04'18 6.0
2019-Nov-20 04:25N 17°17' W 062°55'25 1.1
2019-Nov-19 04:23N 17°43' W 062°53'20 8.4
2019-Nov-19 01:58N 18°01' W 063°03'0 0.0
2019-Nov-18 22:07N 18°01' W 063°03'0 0.0
2019-Nov-18 21:10N 18°01' W 063°03'0 0.0
2019-Nov-18 20:22N 18°01' W 063°03'0 0.0
2019-Nov-18 19:55N 18°01' W 063°03'0 0.0
2019-Nov-18 15:58N 18°01' W 063°03'0 0.0
2019-Nov-18 15:13N 18°01' W 063°03'0 0.0
2019-Nov-18 12:46N 18°01' W 063°03'0 0.0
2019-Nov-18 12:28N 18°01' W 063°03'2 1.3
2019-Nov-18 11:00N 18°00' W 063°05'2111.5
2019-Nov-18 09:13N 18°02' W 063°26'7710.7
2019-Nov-18 02:00N 18°16' W 064°46'10 9.8
2019-Nov-18 01:00N 18°20' W 064°56'0 0.3
2019-Nov-17 23:30N 18°20' W 064°55'0 0.0
2019-Nov-17 22:54N 18°20' W 064°55'0 0.0
2019-Nov-17 22:00N 18°20' W 064°55'0 0.0
2019-Nov-17 19:48N 18°20' W 064°55'0 0.0
2019-Nov-17 17:30N 18°20' W 064°55'0 0.0
2019-Nov-17 16:54N 18°20' W 064°55'24 2.6
2019-Nov-17 07:30N 18°34' W 065°16'29 9.5
2019-Nov-17 04:30N 18°32' W 065°46'1210.0
2019-Nov-17 03:21N 18°31' W 065°58'8 4.5
2019-Nov-17 01:29N 18°28' W 066°07'0 0.0
2019-Nov-16 21:27N 18°28' W 066°07'0 0.0
2019-Nov-16 20:27N 18°28' W 066°07'0 0.0
2019-Nov-16 17:30N 18°28' W 066°07'0 0.0
2019-Nov-16 16:57N 18°28' W 066°07'0 0.0
2019-Nov-16 15:58N 18°28' W 066°07'0 0.0
2019-Nov-16 15:28N 18°28' W 066°07'28 3.5
2019-Nov-16 07:30N 18°30' W 065°38'9 9.4
2019-Nov-16 06:30N 18°30' W 065°28'23 7.7
2019-Nov-16 03:30N 18°16' W 065°08'611.3
2019-Nov-16 03:00N 18°10' W 065°09'612.1
2019-Nov-16 02:30N 18°04' W 065°09'336 8.3
2019-Nov-14 10:16N 14°04' W 061°05'  
2019-Nov-12 03:08N 14°44' W 061°34'  

Dump ship's entire track history